Minneapolis, Minnesota
Traffic Map
Current Weather Conditions
Minneapolis, Minnesota
Clear
Clear
13°
Feels Like: 13°
Wind Chill: 13° Ceiling: Unl
Heat Index: 13° Visibility: 10mi
Dew Point: Wind: 10mph
Humidity: 45% Direction: 310° (NW)
Pressure: 29.98in Gusts: 0mph
Raw Report DataKMSP 251053Z 31009KT 10SM CLR 13/01 A2998 RMK AO2 SLP150 T01280011
Traffic Incident Summary
Active as of:
Severity:
Category:
InformationThere was an issue retrieving the traffic information for this location. Please try a different location or try again shortly.
Advertisements
Track Severe Weather on mobile